Terminal Aerodrome Forecast
Issued by NWS Spokane, WA

Home | Current Version | Previous Version | Text Only | Print | Product List | Glossary On
Versions: 1 2 3 4 5 6 7 8 9 10 11 12 13 14 15 16 17 18 19 20 21 22 23 24 25 26 27 28 29 30 31 32 33 34 35 36
879
FTUS46 KOTX 022339
TAFEAT
TAF
KEAT 022339Z 0300/0324 11006KT P6SM VCSH OVC012
     FM030200 VRB03KT P6SM SCT015 BKN050
     FM030700 34004KT P6SM SCT050 SCT200=

USA.gov is the U.S. government's official web portal to all federal, state and local government web resources and services.